Time;durP1;ratioP1;P1;durP2;ratioP2;P2;SDS_P1;SDS_P2;PMS_P1;PMS_P2;Temp;Humidity;BMP_temperature;BMP_pressure;BME280_temperature;BME280_humidity;BME280_pressure;Samples;Min_cycle;Max_cycle;Signal;HPM_P1;HPM_P2
2022/09/12 00:01:27;;;;;;;12.10;6.72;;;;;;;18.58;75.51;98048.44;4486933;31;20434;-77
2022/09/12 00:03:57;;;;;;;13.60;6.15;;;;;;;17.64;79.18;98045.75;4487286;32;20134;-77
2022/09/12 00:06:26;;;;;;;11.73;6.25;;;;;;;18.21;77.24;98047.75;4487404;31;20133;-77
2022/09/12 00:08:55;;;;;;;14.38;6.80;;;;;;;18.75;74.29;98042.00;4486913;31;20075;-78
2022/09/12 00:11:23;;;;;;;12.10;6.40;;;;;;;18.81;73.79;98041.50;4486998;31;20096;-77
2022/09/12 00:13:49;;;;;;;14.43;6.62;;;;;;;18.61;75.39;98053.47;4487069;31;20088;-77
2022/09/12 00:16:22;;;;;;;12.88;6.55;;;;;;;18.71;74.91;98049.22;4486597;31;20092;-77
2022/09/12 00:18:50;;;;;;;13.60;7.05;;;;;;;18.91;73.05;98045.09;4485980;32;20072;-77
2022/09/12 00:21:17;;;;;;;13.27;6.43;;;;;;;18.47;75.18;98054.47;4486769;31;20108;-77
2022/09/12 00:23:45;;;;;;;14.43;7.12;;;;;;;18.72;73.80;98042.22;4486813;31;20107;-77
2022/09/12 00:26:12;;;;;;;12.45;6.32;;;;;;;19.07;72.77;98036.91;4485958;32;20089;-77
2022/09/12 00:28:40;;;;;;;12.82;6.55;;;;;;;18.13;77.00;98043.09;4487007;31;20080;-77
2022/09/12 00:31:10;;;;;;;13.82;6.72;;;;;;;18.42;75.60;98042.72;4486483;31;20105;-78
2022/09/12 00:33:37;;;;;;;12.70;6.53;;;;;;;18.72;74.10;98039.63;4487108;31;20101;-77
2022/09/12 00:36:06;;;;;;;11.52;6.37;;;;;;;19.23;71.85;98036.53;4486478;31;20494;-77
2022/09/12 00:38:37;;;;;;;13.35;6.82;;;;;;;19.99;68.33;98045.34;4486961;31;20083;-77
2022/09/12 00:41:05;;;;;;;11.90;6.32;;;;;;;19.87;68.36;98034.91;4486872;31;20127;-77
2022/09/12 00:43:40;;;;;;;11.90;6.30;;;;;;;19.80;68.69;98033.75;4486537;31;20096;-77
2022/09/12 00:46:31;;;;;;;11.45;6.20;;;;;;;19.26;71.03;98033.69;4486835;31;20092;-77
2022/09/12 00:49:30;;;;;;;11.80;6.28;;;;;;;19.20;71.50;98040.22;4486766;31;20148;-77
2022/09/12 00:52:06;;;;;;;14.93;6.80;;;;;;;19.36;70.41;98029.41;4486122;31;20149;-77
2022/09/12 00:54:40;;;;;;;12.65;6.22;;;;;;;18.89;72.29;98036.53;4486585;31;20107;-77
2022/09/12 00:57:08;;;;;;;13.57;6.87;;;;;;;19.25;70.96;98038.09;4485289;32;20586;-77
2022/09/12 00:59:57;;;;;;;12.02;6.37;;;;;;;19.95;68.03;98042.13;4485522;32;20099;-77
2022/09/12 01:02:25;;;;;;;11.70;5.82;;;;;;;20.11;66.95;98031.28;4486447;31;20092;-77
2022/09/12 01:04:52;;;;;;;11.98;6.00;;;;;;;19.74;68.17;98036.84;4486036;31;20111;-78
2022/09/12 01:07:20;;;;;;;12.02;6.47;;;;;;;18.59;72.75;98025.75;4486868;31;20080;-78
2022/09/12 01:09:47;;;;;;;12.98;6.72;;;;;;;18.17;74.42;98031.47;4488562;31;20107;-77
2022/09/12 01:12:14;;;;;;;13.85;7.22;;;;;;;19.04;71.10;98024.91;4486787;31;20100;-77
2022/09/12 01:14:41;;;;;;;14.52;7.18;;;;;;;18.54;73.27;98023.50;4487174;32;20100;-77
2022/09/12 01:17:13;;;;;;;12.98;7.20;;;;;;;19.51;69.11;98028.19;4488664;31;20092;-77
2022/09/12 01:20:03;;;;;;;13.82;7.35;;;;;;;19.10;70.37;98028.81;4487068;32;20110;-77
2022/09/12 01:22:51;;;;;;;13.05;7.07;;;;;;;19.32;69.51;98028.78;4488285;31;20101;-77
2022/09/12 01:25:58;;;;;;;13.43;7.00;;;;;;;19.57;68.70;98024.28;4486957;32;20773;-77
2022/09/12 01:29:09;;;;;;;13.88;7.20;;;;;;;19.65;67.88;98025.31;4488253;32;20088;-77
2022/09/12 01:32:04;;;;;;;14.50;7.57;;;;;;;17.94;74.60;98021.88;4472108;31;20110;-77
2022/09/12 01:34:50;;;;;;;14.20;7.82;;;;;;;19.06;70.96;98015.16;4487163;32;20177;-78
2022/09/12 01:37:30;;;;;;;15.27;8.13;;;;;;;19.36;69.62;98014.53;4487321;32;20104;-78
2022/09/12 01:40:20;;;;;;;14.77;8.00;;;;;;;19.32;68.73;98009.66;4486860;32;20097;-77
2022/09/12 01:42:59;;;;;;;12.52;7.00;;;;;;;20.04;66.11;98009.97;4487252;32;20461;-77
2022/09/12 01:45:44;;;;;;;12.57;7.10;;;;;;;19.83;66.02;98017.78;4487169;32;20100;-77
2022/09/12 01:48:30;;;;;;;13.73;7.70;;;;;;;19.83;66.59;98017.78;4487981;32;20084;-77
2022/09/12 01:51:25;;;;;;;14.90;7.87;;;;;;;18.98;70.31;98021.91;4488276;31;20088;-77
2022/09/12 01:53:57;;;;;;;14.93;7.82;;;;;;;18.18;73.79;98027.94;4486665;32;20080;-77
2022/09/12 01:56:27;;;;;;;13.45;7.18;;;;;;;18.45;73.28;98016.34;4486971;32;20174;-77
2022/09/12 01:59:04;;;;;;;15.20;7.62;;;;;;;18.79;71.76;98025.13;4487102;32;20109;-77
2022/09/12 02:01:33;;;;;;;16.12;8.05;;;;;;;18.39;73.69;98020.25;4486702;32;20153;-77
2022/09/12 02:04:19;;;;;;;15.40;7.47;;;;;;;18.12;74.27;98014.47;4486859;32;20103;-77
2022/09/12 02:06:55;;;;;;;16.80;7.62;;;;;;;18.44;73.78;98014.69;4488229;31;20110;-77
2022/09/12 02:09:24;;;;;;;16.52;8.30;;;;;;;18.62;72.95;98008.09;4486710;32;20105;-77
2022/09/12 02:11:53;;;;;;;15.18;8.15;;;;;;;18.79;72.39;98005.03;4487895;31;20092;-77
2022/09/12 02:14:30;;;;;;;15.25;7.90;;;;;;;18.93;71.17;98001.38;4473512;32;20089;-77
2022/09/12 02:16:57;;;;;;;;;;;;;;;18.77;71.77;98008.72;4487330;32;20096;-77
2022/09/12 02:19:28;;;;;;;16.52;8.50;;;;;;;18.57;73.08;98010.19;4487453;31;20008;-78
2022/09/12 02:21:58;;;;;;;15.25;7.85;;;;;;;17.42;77.95;98014.31;4487315;31;20443;-77
2022/09/12 02:24:35;;;;;;;15.10;8.80;;;;;;;18.30;74.34;98010.50;4486667;32;20081;-78
2022/09/12 02:27:09;;;;;;;15.13;7.90;;;;;;;18.41;73.35;98005.31;4486914;32;20112;-78
2022/09/12 02:29:36;;;;;;;16.62;8.00;;;;;;;18.25;73.77;98012.63;4486480;32;20123;-78
2022/09/12 02:32:14;;;;;;;17.35;8.90;;;;;;;18.44;72.67;98005.06;4487764;31;20103;-78
2022/09/12 02:35:02;;;;;;;15.93;8.20;;;;;;;18.74;71.46;98003.72;4487797;31;20084;-78
2022/09/12 02:37:48;;;;;;;15.05;7.85;;;;;;;18.09;73.90;98012.09;4488020;32;20107;-78
2022/09/12 02:40:15;;;;;;;16.10;8.48;;;;;;;18.63;71.48;98009.75;4486769;31;20458;-77
2022/09/12 02:42:42;;;;;;;16.60;8.15;;;;;;;18.65;71.74;98002.66;4487574;31;20088;-78
2022/09/12 02:45:11;;;;;;;15.40;7.57;;;;;;;18.71;70.75;98003.94;4486554;32;20157;-77
2022/09/12 02:47:43;;;;;;;13.65;7.32;;;;;;;18.96;70.11;98003.75;4486658;32;20477;-77
2022/09/12 02:50:10;;;;;;;13.70;6.97;;;;;;;18.97;69.57;98007.19;4473319;32;20109;-77
2022/09/12 02:52:37;;;;;;;15.23;7.43;;;;;;;18.81;69.87;98001.47;4486598;32;20107;-77
2022/09/12 02:55:05;;;;;;;14.60;7.57;;;;;;;18.77;70.45;98003.50;4486541;32;20095;-77
2022/09/12 02:57:32;;;;;;;16.40;7.93;;;;;;;18.44;72.44;98009.47;4486273;32;20450;-77
2022/09/12 03:00:00;;;;;;;17.33;7.55;;;;;;;17.52;75.66;98007.50;4487787;31;20815;-78
2022/09/12 03:02:36;;;;;;;13.98;6.82;;;;;;;17.96;74.78;98008.72;4486570;32;20092;-78
2022/09/12 03:05:18;;;;;;;13.93;6.95;;;;;;;17.93;73.05;98000.16;4487210;32;20107;-78
2022/09/12 03:08:09;;;;;;;14.75;7.70;;;;;;;18.86;69.99;98002.78;4487822;31;20100;-77
2022/09/12 03:11:03;;;;;;;15.27;7.55;;;;;;;18.63;70.94;97998.47;4487370;31;20119;-78
2022/09/12 03:13:44;;;;;;;14.10;6.90;;;;;;;18.16;72.58;98001.06;4486312;32;20092;-77
2022/09/12 03:16:32;;;;;;;13.00;7.12;;;;;;;19.07;68.84;97995.06;4486473;32;20076;-77
2022/09/12 03:19:20;;;;;;;13.20;7.00;;;;;;;18.60;70.54;97996.91;4487509;31;20116;-77
2022/09/12 03:21:55;;;;;;;13.43;6.72;;;;;;;18.69;70.21;98001.44;4487377;31;20509;-77
2022/09/12 03:24:37;;;;;;;13.88;7.03;;;;;;;18.73;69.72;98005.53;4487303;31;20102;-77
2022/09/12 03:27:29;;;;;;;13.25;6.90;;;;;;;19.05;68.55;98004.81;4487616;31;20073;-78
2022/09/12 03:29:57;;;;;;;14.70;7.03;;;;;;;17.87;72.98;98005.84;4486303;32;20100;-78
2022/09/12 03:32:44;;;;;;;14.10;7.25;;;;;;;17.25;76.75;98005.94;4487046;31;20103;-78
2022/09/12 03:35:13;;;;;;;13.90;6.60;;;;;;;18.63;70.22;98004.53;4486246;32;20089;-78
2022/09/12 03:37:40;;;;;;;14.13;6.90;;;;;;;18.92;68.69;98007.53;4486408;32;20081;-77
2022/09/12 03:40:09;;;;;;;15.10;6.87;;;;;;;18.24;71.94;97997.91;4486972;31;20462;-77
2022/09/12 03:42:36;;;;;;;13.02;6.87;;;;;;;17.66;73.95;97996.94;4486395;32;20112;-77
2022/09/12 03:45:04;;;;;;;13.68;6.68;;;;;;;17.80;72.65;97994.19;4486101;32;20111;-78
2022/09/12 03:47:31;;;;;;;12.98;6.93;;;;;;;18.32;70.62;97995.56;4487226;31;20145;-78
2022/09/12 03:49:58;;;;;;;13.60;7.05;;;;;;;18.06;71.99;98000.09;4487429;31;20111;-78
2022/09/12 03:52:25;;;;;;;14.07;7.00;;;;;;;18.36;70.62;98001.38;4487090;31;20092;-77
2022/09/12 03:54:52;;;;;;;13.70;6.75;;;;;;;18.00;72.41;98015.38;4487230;31;20452;-77
2022/09/12 03:57:19;;;;;;;14.60;7.40;;;;;;;18.33;70.83;98010.28;4487517;31;20064;-77
2022/09/12 03:59:48;;;;;;;13.07;6.95;;;;;;;18.12;71.04;98020.53;4486978;32;20435;-77
2022/09/12 04:02:16;;;;;;;12.55;6.50;;;;;;;17.37;74.27;98024.25;4486092;32;20172;-77
2022/09/12 04:04:46;;;;;;;14.95;7.10;;;;;;;17.89;72.72;98024.00;4487049;31;20152;-77
2022/09/12 04:07:15;;;;;;;13.13;6.53;;;;;;;18.30;70.43;98027.97;4485806;32;20084;-77
2022/09/12 04:09:41;;;;;;;12.30;6.22;;;;;;;17.14;75.26;98028.47;4487241;31;20111;-77
2022/09/12 04:12:09;;;;;;;14.30;7.00;;;;;;;16.98;77.56;98024.31;4487103;31;20123;-77
2022/09/12 04:14:36;;;;;;;13.45;6.30;;;;;;;17.94;72.59;98024.50;4486771;32;20096;-77
2022/09/12 04:17:03;;;;;;;13.38;6.47;;;;;;;18.97;67.68;98022.88;4487149;31;20080;-77
2022/09/12 04:19:30;;;;;;;12.75;6.68;;;;;;;18.43;70.00;98029.53;4487193;31;20451;-77
2022/09/12 04:21:56;;;;;;;12.35;5.82;;;;;;;17.89;72.21;98019.63;4486439;31;20149;-77
2022/09/12 04:24:23;;;;;;;13.82;6.78;;;;;;;17.74;72.89;98028.53;4487006;31;20156;-77
2022/09/12 04:26:50;;;;;;;14.25;6.50;;;;;;;18.71;68.31;98025.69;4485821;32;20085;-77
2022/09/12 04:29:17;;;;;;;13.98;6.85;;;;;;;18.89;67.66;98030.47;4486614;31;20092;-77
2022/09/12 04:31:44;;;;;;;12.50;6.45;;;;;;;18.67;68.82;98026.87;4486944;31;20088;-77
2022/09/12 04:34:11;;;;;;;14.23;7.03;;;;;;;18.93;67.27;98029.31;4486944;31;20226;-77
2022/09/12 04:36:38;;;;;;;13.65;6.50;;;;;;;18.67;68.25;98036.50;4486586;31;20072;-77
2022/09/12 04:39:06;;;;;;;13.80;7.00;;;;;;;19.24;66.05;98039.03;4486912;32;20111;-77
2022/09/12 04:41:36;;;;;;;13.45;7.10;;;;;;;18.96;67.17;98037.72;4486414;31;20111;-77
2022/09/12 04:44:06;;;;;;;15.27;6.53;;;;;;;19.37;64.82;98036.31;4486280;31;20080;-78
2022/09/12 04:46:36;;;;;;;13.05;6.40;;;;;;;19.59;63.83;98041.53;4486819;31;20111;-77
2022/09/12 04:49:03;;;;;;;12.10;6.25;;;;;;;19.63;63.61;98040.31;4486433;31;20097;-78
2022/09/12 04:51:32;;;;;;;13.82;6.50;;;;;;;19.47;64.52;98041.66;4486683;31;20625;-78
2022/09/12 04:54:01;;;;;;;13.23;6.55;;;;;;;19.00;66.84;98044.38;4486387;32;20095;-78
2022/09/12 04:56:28;;;;;;;11.48;5.93;;;;;;;18.86;67.72;98049.84;4486321;31;20098;-78
2022/09/12 04:58:57;;;;;;;12.98;6.55;;;;;;;19.41;65.62;98055.19;4486669;31;20100;-78
2022/09/12 05:01:24;;;;;;;12.18;6.15;;;;;;;19.88;63.09;98046.19;4486509;31;20104;-78
2022/09/12 05:03:52;;;;;;;12.57;5.97;;;;;;;19.71;63.67;98047.56;4486053;31;20648;-77
2022/09/12 05:06:27;;;;;;;13.60;6.25;;;;;;;19.40;65.62;98043.91;4485488;32;20084;-78
2022/09/12 05:08:55;;;;;;;12.23;5.40;;;;;;;19.85;63.79;98041.22;4486295;32;20580;-77
2022/09/12 05:11:24;;;;;;;11.32;5.53;;;;;;;19.50;65.11;98049.25;4484782;31;20105;-77
2022/09/12 05:14:07;;;;;;;12.75;5.15;;;;;;;18.98;67.31;98051.50;4486307;31;20454;-77
2022/09/12 05:16:33;;;;;;;11.75;5.30;;;;;;;19.15;66.95;98054.62;4485949;31;20072;-77
2022/09/12 05:19:00;;;;;;;11.85;5.85;;;;;;;19.30;67.09;98054.25;4486231;31;20152;-78
2022/09/12 05:21:27;;;;;;;10.50;4.50;;;;;;;20.02;64.03;98061.66;4485947;31;20107;-78
2022/09/12 05:23:57;;;;;;;10.07;4.55;;;;;;;20.26;62.33;98068.47;4485945;31;20099;-78
2022/09/12 05:26:24;;;;;;;10.75;4.85;;;;;;;20.67;61.22;98068.53;4486164;31;20088;-78
2022/09/12 05:28:51;;;;;;;8.95;4.50;;;;;;;20.35;62.04;98071.16;4486222;31;20153;-78
2022/09/12 05:31:21;;;;;;;10.73;4.70;;;;;;;20.72;60.41;98074.19;4485743;31;20107;-78
2022/09/12 05:33:49;;;;;;;10.55;4.50;;;;;;;21.84;57.15;98077.75;4485898;32;20423;-78
2022/09/12 05:36:21;;;;;;;9.93;4.50;;;;;;;21.89;56.28;98091.28;4486157;31;20080;-78
2022/09/12 05:38:48;;;;;;;10.35;4.50;;;;;;;21.27;57.93;98081.88;4485749;31;20096;-78
2022/09/12 05:41:26;;;;;;;8.82;4.00;;;;;;;22.17;55.75;98092.34;4485935;31;20158;-78
2022/09/12 05:43:55;;;;;;;10.57;4.12;;;;;;;23.72;50.63;98092.91;4485891;31;20104;-78
2022/09/12 05:46:24;;;;;;;10.88;3.70;;;;;;;23.13;52.58;98099.34;4485612;31;20084;-78
2022/09/12 05:48:53;;;;;;;9.27;3.85;;;;;;;22.18;54.78;98092.22;4485879;31;20585;-78
2022/09/12 05:51:27;;;;;;;8.55;3.62;;;;;;;21.63;56.45;98083.09;4485787;31;20088;-78
2022/09/12 05:53:57;;;;;;;8.70;3.87;;;;;;;21.48;57.13;98087.03;4485285;31;20103;-78
2022/09/12 05:56:26;;;;;;;9.50;3.67;;;;;;;22.77;53.83;98090.41;4488121;31;20080;-77
2022/09/12 05:59:01;;;;;;;10.95;4.35;;;;;;;22.50;53.98;98093.75;4487814;31;20468;-77
2022/09/12 06:01:29;;;;;;;9.27;3.90;;;;;;;23.55;51.43;98083.09;4488078;31;20101;-78
2022/09/12 06:03:59;;;;;;;7.85;3.85;;;;;;;23.81;50.11;98075.34;4486908;32;20525;-77
2022/09/12 06:06:28;;;;;;;7.82;3.47;;;;;;;24.30;48.18;98081.13;4486649;32;20147;-77
2022/09/12 06:09:00;;;;;;;8.70;3.85;;;;;;;24.32;48.42;98089.75;4487982;32;20119;-77
2022/09/12 06:11:30;;;;;;;10.23;3.85;;;;;;;24.56;48.00;98094.41;4488070;31;20503;-78
2022/09/12 06:13:57;;;;;;;9.00;3.90;;;;;;;24.13;48.69;98080.97;4487640;31;20085;-78
2022/09/12 06:16:30;;;;;;;8.75;4.03;;;;;;;22.74;52.80;98088.03;4488030;31;20475;-79
2022/09/12 06:18:58;;;;;;;7.93;3.53;;;;;;;23.79;50.20;98075.50;4488145;31;20115;-78
2022/09/12 06:21:27;;;;;;;9.23;4.12;;;;;;;23.87;50.19;98072.97;4487462;31;20153;-79
2022/09/12 06:23:54;;;;;;;8.05;3.70;;;;;;;23.07;52.65;98078.84;4486836;32;20107;-78
2022/09/12 06:26:22;;;;;;;8.13;3.55;;;;;;;22.30;54.59;98079.75;4488133;32;20076;-78
2022/09/12 06:28:49;;;;;;;7.60;3.45;;;;;;;23.27;52.14;98075.19;4487669;31;20097;-78
2022/09/12 06:31:19;;;;;;;9.07;3.97;;;;;;;24.10;50.57;98080.44;4487944;31;20094;-80
2022/09/12 06:33:48;;;;;;;6.70;3.40;;;;;;;24.45;48.66;98075.19;4487380;31;20084;-79
2022/09/12 06:36:21;;;;;;;7.15;3.45;;;;;;;24.69;48.72;98081.66;4487911;32;20099;-79
2022/09/12 06:38:56;;;;;;;7.82;3.30;;;;;;;25.17;46.87;98083.81;4487887;32;20092;-79
2022/09/12 06:41:24;;;;;;;9.82;3.70;;;;;;;23.91;49.48;98079.59;4487581;31;20088;-79
2022/09/12 06:43:51;;;;;;;10.90;3.70;;;;;;;24.81;47.43;98088.34;4487874;31;20424;-80
2022/09/12 06:46:19;;;;;;;10.18;3.95;;;;;;;24.18;48.84;98080.53;4487923;31;20080;-80
2022/09/12 06:48:46;;;;;;;8.43;3.65;;;;;;;24.65;47.82;98090.84;4487607;31;20101;-80
2022/09/12 06:51:15;;;;;;;8.38;3.70;;;;;;;23.41;50.58;98096.75;4487767;31;20437;-80
2022/09/12 06:53:43;;;;;;;8.15;3.40;;;;;;;24.16;49.31;98090.41;4487558;32;20149;-80
2022/09/12 06:56:15;;;;;;;9.07;3.75;;;;;;;23.66;50.48;98083.78;4487540;31;20084;-80
2022/09/12 06:58:42;;;;;;;7.95;3.47;;;;;;;23.72;50.09;98085.00;4487655;31;20097;-80
2022/09/12 07:01:17;;;;;;;9.13;3.62;;;;;;;23.21;51.49;98083.66;4487813;31;20109;-80
2022/09/12 07:03:53;;;;;;;9.07;3.50;;;;;;;24.45;47.82;98085.75;4486353;32;20145;-80
2022/09/12 07:06:23;;;;;;;10.43;3.80;;;;;;;24.28;47.75;98085.72;4487345;31;20102;-80
2022/09/12 07:08:50;;;;;;;9.48;4.60;;;;;;;23.97;49.00;98091.34;4487452;31;20101;-81
2022/09/12 07:11:22;;;;;;;9.15;4.03;;;;;;;23.81;49.60;98081.47;4487686;31;20100;-81
2022/09/12 07:13:51;;;;;;;8.57;3.55;;;;;;;23.98;49.14;98081.66;4487509;31;20744;-80
2022/09/12 07:16:19;;;;;;;8.55;3.33;;;;;;;23.12;52.00;98092.41;4487432;31;20080;-80
2022/09/12 07:18:51;;;;;;;7.62;3.50;;;;;;;23.86;49.53;98095.03;4487720;31;20084;-80
2022/09/12 07:21:18;;;;;;;7.12;3.40;;;;;;;22.87;52.13;98085.97;4487524;31;20088;-80
2022/09/12 07:23:46;;;;;;;8.80;3.80;;;;;;;24.37;48.32;98090.97;4487230;31;20088;-80
2022/09/12 07:26:15;;;;;;;9.02;3.65;;;;;;;24.50;47.58;98094.03;4486438;32;20556;-80
2022/09/12 07:28:42;;;;;;;7.18;3.40;;;;;;;24.21;48.42;98083.69;4487523;31;20101;-80
2022/09/12 07:31:14;;;;;;;10.15;3.15;;;;;;;24.56;48.19;98097.03;4487321;31;20153;-80
2022/09/12 07:33:42;;;;;;;7.50;3.42;;;;;;;24.29;47.05;98101.41;4487421;31;20088;-80
2022/09/12 07:36:14;;;;;;;9.40;3.62;;;;;;;23.86;48.84;98096.84;4486447;32;20083;-80
2022/09/12 07:38:42;;;;;;;8.13;3.40;;;;;;;23.60;49.93;98109.84;4487216;31;20092;-80
2022/09/12 07:41:20;;;;;;;9.48;3.87;;;;;;;23.47;50.98;98111.97;4487510;31;20149;-79
2022/09/12 07:43:47;;;;;;;8.90;3.65;;;;;;;24.05;49.46;98106.44;4487156;31;20386;-80
2022/09/12 07:46:14;;;;;;;9.70;3.85;;;;;;;23.47;51.18;98114.59;4487535;31;20122;-80
2022/09/12 07:48:41;;;;;;;8.18;3.58;;;;;;;23.90;49.78;98109.56;4487358;31;20144;-78
2022/09/12 07:51:10;;;;;;;9.13;4.00;;;;;;;23.17;51.33;98102.50;4487039;31;20433;-80
2022/09/12 07:53:39;;;;;;;7.78;3.62;;;;;;;22.91;52.85;98118.09;4487286;31;20084;-80
2022/09/12 07:56:09;;;;;;;8.00;3.97;;;;;;;22.50;53.11;98120.03;4487368;31;20076;-78
2022/09/12 07:58:37;;;;;;;9.40;4.20;;;;;;;23.13;52.58;98114.31;4486997;31;20088;-78
2022/09/12 08:01:07;;;;;;;9.18;4.30;;;;;;;22.27;54.00;98111.59;4487259;31;20210;-79
2022/09/12 08:03:39;;;;;;;8.55;4.10;;;;;;;23.53;51.93;98122.75;4487453;31;20084;-80
2022/09/12 08:06:14;;;;;;;10.68;3.95;;;;;;;24.42;48.47;98111.59;4486934;32;20587;-78
2022/09/12 08:08:42;;;;;;;8.80;3.75;;;;;;;24.50;47.79;98109.88;4487191;31;20149;-79
2022/09/12 08:11:11;;;;;;;8.18;4.10;;;;;;;24.35;48.74;98106.13;4487075;31;20092;-78
2022/09/12 08:13:39;;;;;;;8.68;3.80;;;;;;;25.08;47.13;98122.53;4486493;31;20472;-80
2022/09/12 08:16:10;;;;;;;10.50;3.72;;;;;;;23.87;49.99;98115.12;4487219;31;20160;-78
2022/09/12 08:18:38;;;;;;;8.77;3.47;;;;;;;24.64;47.20;98112.94;4486086;31;20096;-78
2022/09/12 08:21:16;;;;;;;8.98;4.00;;;;;;;23.46;50.86;98105.03;4486512;31;20104;-79
2022/09/12 08:23:43;;;;;;;10.10;3.72;;;;;;;23.75;51.38;98115.47;4486862;31;20427;-79
2022/09/12 08:26:12;;;;;;;9.73;3.80;;;;;;;24.33;49.12;98115.12;4486673;31;20099;-78
2022/09/12 08:28:39;;;;;;;8.82;3.90;;;;;;;24.89;48.46;98119.25;4487033;31;20161;-80
2022/09/12 08:31:09;;;;;;;10.10;3.97;;;;;;;25.87;45.16;98110.09;4485621;32;20081;-77
2022/09/12 08:33:36;;;;;;;8.30;3.65;;;;;;;25.54;44.74;98109.94;4485328;32;20111;-79
2022/09/12 08:36:07;;;;;;;9.48;3.67;;;;;;;25.13;45.60;98113.34;4486848;31;20118;-79
2022/09/12 08:38:35;;;;;;;8.32;3.75;;;;;;;25.01;46.72;98116.22;4486936;31;20119;-80
2022/09/12 08:41:17;;;;;;;9.02;4.18;;;;;;;25.23;46.42;98119.34;4485087;31;20104;-80
2022/09/12 08:44:05;;;;;;;9.75;3.95;;;;;;;25.24;45.97;98121.00;4486684;31;20140;-81
2022/09/12 08:47:06;;;;;;;8.05;3.90;;;;;;;25.26;46.69;98114.56;4487793;31;20128;-83
2022/09/12 08:50:07;;;;;;;7.00;3.37;;;;;;;25.43;46.29;98104.09;4488095;31;20687;-82
2022/09/12 08:53:08;;;;;;;10.50;4.07;;;;;;;23.59;49.73;98106.38;4487114;31;20101;-84
2022/09/12 08:55:42;;;;;;;8.02;3.30;;;;;;;25.14;46.04;98099.97;4486567;31;20107;-82
2022/09/12 08:58:19;;;;;;;7.05;3.40;;;;;;;24.99;45.83;98102.34;4486552;31;20522;-81
2022/09/12 09:00:48;;;;;;;9.30;3.67;;;;;;;24.57;46.63;98096.91;4486569;31;20464;-82
2022/09/12 09:03:43;;;;;;;7.60;4.10;;;;;;;24.52;46.84;98097.34;4484977;32;20105;-81
2022/09/12 09:06:38;;;;;;;8.90;4.10;;;;;;;25.85;43.82;98098.84;4486401;31;20151;-81
2022/09/12 09:09:30;;;;;;;8.30;3.50;;;;;;;25.87;43.97;98096.88;4486121;31;20143;-81
2022/09/12 09:12:22;;;;;;;7.47;3.67;;;;;;;26.32;42.61;98104.41;4486220;31;20110;-81
2022/09/12 09:14:55;;;;;;;7.28;3.20;;;;;;;26.48;41.41;98093.88;4486336;31;20380;-81
2022/09/12 09:17:35;;;;;;;8.02;3.15;;;;;;;25.88;42.61;98095.87;4485990;31;20081;-83
2022/09/12 09:20:51;;;;;;;9.00;4.07;;;;;;;24.48;47.19;98096.00;4486406;31;20093;-82
2022/09/12 09:23:23;;;;;;;8.23;3.75;;;;;;;25.19;45.71;98102.13;4481199;31;20152;-81
2022/09/12 09:25:55;;;;;;;7.20;3.50;;;;;;;24.23;48.02;98096.72;4485131;32;20108;-81
2022/09/12 09:28:28;;;;;;;5.37;2.90;;;;;;;25.12;46.28;98096.66;4486440;32;20422;-81
2022/09/12 09:30:55;;;;;;;5.55;2.78;;;;;;;25.08;45.08;98105.88;4498174;26;20096;-81
2022/09/12 09:33:25;;;;;;;6.62;3.05;;;;;;;26.40;43.15;98109.72;4488059;32;20096;-79
2022/09/12 09:35:59;;;;;;;5.32;2.20;;;;;;;26.68;43.44;98107.56;4488526;31;20131;-82
2022/09/12 09:38:40;;;;;;;7.37;3.00;;;;;;;25.41;44.00;98096.31;4488019;31;20084;-82
2022/09/12 09:41:26;;;;;;;7.45;3.30;;;;;;;25.17;45.86;98101.47;4487076;32;20468;-79
2022/09/12 09:43:53;;;;;;;5.73;2.73;;;;;;;25.68;44.48;98105.84;4487927;31;20104;-81
2022/09/12 09:46:20;;;;;;;8.15;3.40;;;;;;;25.94;42.41;98097.88;4488337;31;20530;-81
2022/09/12 09:48:48;;;;;;;7.75;2.97;;;;;;;25.67;42.17;98101.56;4488175;31;20084;-81
2022/09/12 09:51:26;;;;;;;6.62;3.22;;;;;;;26.19;41.04;98101.41;4486492;32;20081;-81
2022/09/12 09:54:00;;;;;;;6.43;3.10;;;;;;;25.49;43.49;98098.16;4488011;32;20100;-81
2022/09/12 09:56:42;;;;;;;4.93;2.70;;;;;;;25.43;43.89;98093.53;4487104;32;20087;-79
2022/09/12 09:59:30;;;;;;;6.22;3.00;;;;;;;24.19;45.30;98083.00;4487788;31;20084;-82
2022/09/12 10:02:04;;;;;;;6.82;3.05;;;;;;;24.83;44.03;98088.19;4488138;31;20371;-80
2022/09/12 10:04:35;;;;;;;6.80;3.08;;;;;;;25.86;41.90;98100.50;4486541;32;20097;-81
2022/09/12 10:07:17;;;;;;;7.05;3.22;;;;;;;26.38;41.14;98084.44;4488218;31;20115;-81
2022/09/12 10:09:44;;;;;;;;;;;;;;;26.53;41.78;98085.44;4487350;32;20088;-81
2022/09/12 10:12:23;;;;;;;;;;;;;;;26.68;40.20;98085.59;4486659;32;19960;-81
2022/09/12 10:15:01;;;;;;;7.55;3.60;;;;;;;27.92;38.69;98086.75;4486714;32;20330;-81
2022/09/12 10:17:45;;;;;;;9.15;3.75;;;;;;;27.36;38.84;98064.81;4488112;31;20153;-82
2022/09/12 10:20:42;;;;;;;7.82;3.90;;;;;;;26.76;40.21;98075.81;4487421;31;20153;-81
2022/09/12 10:23:39;;;;;;;7.03;3.28;;;;;;;26.20;41.36;98087.19;4481657;32;20168;-81
2022/09/12 10:26:12;;;;;;;6.40;3.20;;;;;;;26.78;39.83;98073.81;4486488;32;20108;-82
2022/09/12 10:28:45;;;;;;;7.05;3.20;;;;;;;26.14;40.77;98082.53;4473852;32;20183;-81
2022/09/12 10:31:15;;;;;;;8.75;3.40;;;;;;;26.57;40.97;98080.63;4486349;32;20088;-81
2022/09/12 10:33:46;;;;;;;6.00;2.75;;;;;;;27.82;38.33;98078.19;4487355;31;20080;-81
2022/09/12 10:36:14;;;;;;;6.25;3.03;;;;;;;26.58;40.23;98071.69;4486827;32;20150;-81
2022/09/12 10:38:51;;;;;;;7.00;3.00;;;;;;;27.47;38.80;98065.44;4487845;32;20111;-81
2022/09/12 10:41:20;;;;;;;6.10;3.10;;;;;;;27.23;39.17;98075.13;4485498;32;20092;-81
2022/09/12 10:43:47;;;;;;;6.25;3.33;;;;;;;27.63;37.81;98066.16;4486866;32;20081;-81
2022/09/12 10:46:14;;;;;;;6.90;3.37;;;;;;;26.68;40.57;98064.41;4487511;32;20104;-82
2022/09/12 10:48:43;;;;;;;7.22;3.00;;;;;;;26.07;41.67;98065.69;4487846;31;20092;-82
2022/09/12 10:51:28;;;;;;;6.90;2.83;;;;;;;26.54;40.07;98071.22;4487532;31;20083;-81
2022/09/12 10:53:58;;;;;;;7.00;3.00;;;;;;;25.62;41.95;98072.13;4487298;31;20384;-81
2022/09/12 10:56:32;;;;;;;5.85;2.70;;;;;;;26.46;40.36;98077.31;4487825;32;20443;-81
2022/09/12 10:59:17;;;;;;;7.43;2.80;;;;;;;26.96;39.68;98068.34;4487925;31;20111;-81
2022/09/12 11:01:48;;;;;;;7.40;3.10;;;;;;;27.10;38.86;98069.50;4487329;31;20083;-82
2022/09/12 11:04:45;;;;;;;7.62;3.33;;;;;;;27.72;39.01;98061.69;4486388;32;20452;-81
2022/09/12 11:07:30;;;;;;;6.68;2.92;;;;;;;26.69;39.84;98069.56;4486535;32;20161;-81
2022/09/12 11:10:16;;;;;;;5.03;2.60;;;;;;;26.35;40.16;98064.37;4487834;31;20104;-81
2022/09/12 11:12:51;;;;;;;5.22;2.47;;;;;;;26.24;40.36;98059.41;4486382;32;20084;-80
2022/09/12 11:15:40;;;;;;;5.60;2.12;;;;;;;26.98;38.30;98054.94;4487020;32;20073;-82
2022/09/12 11:18:19;;;;;;;4.43;2.50;;;;;;;27.23;36.82;98047.81;4487621;32;20092;-82
2022/09/12 11:21:08;;;;;;;4.75;2.35;;;;;;;26.97;37.71;98042.69;4487566;31;20096;-82
2022/09/12 11:23:50;;;;;;;5.15;2.28;;;;;;;25.53;40.11;98036.94;4486089;32;20107;-82
2022/09/12 11:26:39;;;;;;;7.20;2.40;;;;;;;25.37;41.32;98042.16;4487641;31;20076;-82
2022/09/12 11:29:19;;;;;;;6.30;3.08;;;;;;;25.99;40.65;98036.59;4487280;31;20431;-82
2022/09/12 11:31:51;;;;;;;5.78;2.80;;;;;;;25.56;41.79;98047.19;4487237;31;20088;-83
2022/09/12 11:34:49;;;;;;;4.75;2.60;;;;;;;25.97;41.28;98046.50;4487344;31;20089;-82
2022/09/12 11:37:19;;;;;;;;;;;;;;;24.97;43.98;98040.09;4487404;32;20107;-83
2022/09/12 11:39:47;;;;;;;5.70;2.60;;;;;;;25.62;42.67;98046.53;4487564;32;19972;-83
2022/09/12 11:42:24;;;;;;;5.90;2.72;;;;;;;23.37;46.90;98040.91;4487257;31;20114;-82
2022/09/12 11:44:59;;;;;;;5.50;2.55;;;;;;;24.12;46.69;98047.69;4486090;32;20088;-83
2022/09/12 11:47:27;;;;;;;6.10;2.72;;;;;;;24.60;45.37;98040.38;4486345;32;20081;-81
2022/09/12 11:49:55;;;;;;;4.85;2.42;;;;;;;25.05;44.25;98042.84;4485910;32;20112;-81
2022/09/12 11:52:22;;;;;;;4.65;2.33;;;;;;;25.34;43.63;98034.56;4487275;32;20099;-81
2022/09/12 11:55:16;;;;;;;5.72;2.62;;;;;;;25.24;42.67;98033.84;4486978;31;20107;-82
2022/09/12 11:57:47;;;;;;;7.00;3.00;;;;;;;25.13;42.72;98031.50;4485905;32;20081;-83
2022/09/12 12:00:20;;;;;;;6.18;2.78;;;;;;;24.66;44.40;98037.94;4486117;32;20096;-81